Andraz Bijol

Recruteur - NK Maribor
3 Déc 2028
Dimanche
Processus

Personnalité

Adaptabilité (17) Ambition (12) Controverse (19) Loyauté (18) Pression (1) Professionnalisme (8) Sportivité (11) Tempérament (17)

Profil

Style d'entraînement Démocratique
Diplôme Continental B
Détermination 7
Gestion des joueurs 12
Motivation 11
Discipline 9
Satisfaction professionnelle
100%
Fatigue
0%
Rôle Recruteur
Salaire 31.0K p/s
Contrat 14.03.2029

Performance

Comportement Bon
Efficacité de l'entraînement
40%
Développement des joueurs
30%
Prévention des blessures
30%
Mise en place tactique
45%

Événements récents

A participé à une réunion de recrutement 7j
A évalué un joueur 7j
A évalué un joueur 7j
A évalué un joueur 7j
A participé à une réunion de recrutement 14j
A évalué un joueur 14j
A observé un match 14j
A évalué un joueur 21j

Suivi en cours

72
Joueur Club Statut Capacité Confiance Observé Dernière observation Dernier vote
Vicente Poggi Godoy Cruz Actif 121 / 131 40% 1 25.11.2028 -
Augusto Schott Talleres Actif 119 / 113 40% 1 25.11.2028 -
Felipe Peña Biafore Lanús Actif 140 / 140 40% 2 24.11.2028 -
Riku Yamane Yokohama F. Marinos Actif 147 / 127 40% 1 24.11.2028 -
Julián Palacios Envigado Actif 109 / 115 40% 1 23.11.2028 -
Emanuel Mammana Vélez Actif 125 / 139 40% 1 23.11.2028 -
Gianluca Ferrari Atlético Tucumán Actif 110 / 129 40% 2 22.11.2028 -
Lautaro Vargas Unión de Santa Fe Actif 125 / 111 40% 1 22.11.2028 -
Juan Infante Atlético Tucumán Actif 133 / 110 40% 1 17.11.2028 -
César Ibáñez Huracán Actif 123 / 123 40% 1 17.11.2028 -
Gastón Hernández San Lorenzo Actif 135 / 138 40% 1 12.11.2028 -
Sheyko Studer Independiente Rivadavia Actif 122 / 112 40% 1 12.11.2028 -
Fabricio Corbalán Gimnasia La Plata Actif 120 / 112 40% 2 30.10.2028 -
Kevin López Independiente Actif 138 / 129 40% 1 30.10.2028 -
Pedro Souto Temperley Actif 131 / 121 40% 3 29.10.2028 -
Mateo Seoane Gimnasia La Plata Actif 113 / 112 40% 1 28.10.2028 -
Alan Rodríguez Rosario Central Actif 114 / 123 40% 1 26.10.2028 -
Gonzalo Pérez Lanús Actif 118 / 119 40% 1 26.10.2028 -
Tomás Porra Barracas Central Actif 131 / 115 40% 2 25.10.2028 -
Valentín Moreno Tigre Actif 134 / 120 40% 1 25.10.2028 -
Franco Díaz Temperley Actif 121 / 128 40% 2 21.10.2028 -
Alcides Benítez Belgrano Actif 129 / 107 40% 1 14.10.2028 -
Ignacio Abraham Banfield Actif 119 / 107 40% 1 12.10.2028 -
Siro Rosané Estudiantes Actif 131 / 105 40% 1 12.10.2028 -
Adrián Sánchez Belgrano Actif 137 / 119 40% 2 11.10.2028 -
Tobías Leiva Estudiantes Actif 126 / 110 40% 2 11.10.2028 -
Emanuel Coronel Rosario Central Actif 140 / 115 40% 1 10.10.2028 -
Koffi Kouao Neftchi Actif 136 / 129 40% 1 07.10.2028 -
Matías Machado Racing Actif 113 / 117 40% 1 04.10.2028 -
Njabulo Blom Pakhtakor Actif 128 / 127 40% 1 06.09.2028 -
Lucas Martínez Quarta Central Córdoba SdE Actif 140 / 119 40% 1 05.09.2028 -
Alessandro Arena Arezzo Actif 134 / 113 40% 1 01.08.2028 -
Armand Laurienté Sassuolo Actif 144 / 149 40% 1 01.08.2028 -
Marco Tumminello Benevento Actif 112 / 128 40% 1 25.07.2028 -
Malik Mothersille Stockport County Actif 130 / 124 40% 1 25.07.2028 -
Reuell Walters Luton Town Actif 128 / 130 40% 1 31.05.2028 -
Patrick Roberts Birmingham Actif 139 / 121 40% 1 31.05.2028 -
Ludovico Del Sorbo Sorrento Actif 135 / 123 40% 1 31.05.2028 -
Matías Arias Vélez Actif 132 / 137 40% 1 17.01.2028 -
Artur Kozyrev Volna Actif 98 / 92 40% 1 17.01.2028 -
Ryan Kavuma-McQueen Accrington Stanley Actif 100 / 140 40% 1 31.12.2027 -
Chimobi Igwilo Rangers International Actif 99 / 89 40% 1 31.12.2027 -
Francisco Machis Llaneros Actif 82 / 90 40% 1 06.07.2027 -
Adam Boufandar Pro Vercelli Actif 87 / 103 40% 1 14.06.2027 -
Leandro Martins Benfica Actif 110 / 101 40% 1 14.06.2027 -
Hosea Michael Remo Stars Actif 86 / 87 40% 1 18.05.2027 -
Gady Beyuku Blackburn Rovers Actif 120 / 104 40% 1 13.05.2027 -
Samuele di Benedetto Twente Actif 97 / 110 40% 3 12.05.2027 -
Rhys Walters Port Vale Actif 109 / 117 40% 1 12.05.2027 -
Alessandro Zoboletti Sambenedettese Actif 79 / 102 40% 1 07.05.2027 -
Maxim Radchenko Rostov Actif 82 / 79 40% 1 03.05.2027 -
Yegor Vedernikov Irkutsk Actif 86 / 70 40% 2 01.05.2027 -
Kazunari Kita Real Sociedad Actif 90 / 118 40% 1 29.04.2027 -
Tiago Freitas Benfica Actif 107 / 99 40% 1 28.04.2027 -
Sascha Britschgi AC Milan Actif 127 / 131 40% 1 27.04.2027 -
Konta Ismaily Actif 106 / 106 40% 1 25.04.2027 -
Chari Giwa US Bougouni Actif 68 / 70 40% 1 21.04.2027 -
Lucan Louw US Bougouni Actif 85 / 80 40% 1 17.04.2027 -
Ezra Mayers West Ham United Actif 132 / 127 40% 1 10.04.2027 -
Manu Morlanes Mallorca Actif 131 / 124 40% 1 31.12.2026 -
Ferland Mendy Real Madrid Actif 158 / 136 40% 2 13.12.2026 -
Danil Glebov Dinamo Moscow Actif 121 / 130 40% 2 13.12.2026 -
Eldar Ćivić Baltika Actif 120 / 128 40% 1 08.12.2026 -
Dean Campbell Northampton Town Actif 108 / 112 40% 1 21.11.2026 -
Stefan Kovač Baltika Actif 108 / 108 40% 1 06.11.2026 -
Luka Vešner Tičić NK Celje Actif 124 / 124 40% 1 05.11.2026 -
Andrés Alarcón Dinamo Makhachkala Actif 112 / 125 40% 1 18.10.2026 -
Yves Bissouma Tottenham Actif 147 / 141 40% 1 16.10.2026 -
Fredéric Ananou Olimpija Ljubljana Actif 95 / 107 40% 1 12.10.2026 -
Johnly Yfeko Exeter City Actif 125 / 101 40% 1 11.10.2026 -
Facundo Miño Deportivo Riestra Actif 116 / 129 40% 1 05.10.2026 -
Dwight McNeil Crystal Palace Actif 145 / 127 40% 1 02.08.2026 -